Doris Moran — WRU2125 — position and weather

sailwx.info

Track history (hours):
 
Tides and Currents Weather Stations Pressure Air Temp Water Temp Dewpoint Dewpoint Depression Visibility Wind Speed Wind Dir Waves Ship Positions

Doris Moran

Owner: MORAN TOWING CORPORATION, New Canaan, CT. More information available from US FCC via Universal Licensing System and Coast Guard Vessel Documentation Center.

Last reported at 2015-Apr-25 18:33 UTC. Time now 2015-Apr-25 21:45 UTC.
Position N 38°48' W 074°57'.

Length 36 m; draft 5.3 m.

Type: Ship. MMSI: 366939790.

Date/timePositionNaut miles runAvg speedWind from/ knotsBaromVisibWave heightAir tempDewpointWater temp
2015-Apr-25 18:33N 38°48' W 074°57'7 7.0
2015-Apr-25 17:34N 38°52' W 075°04'7 7.4
2015-Apr-25 16:34N 38°59' W 075°08'3 3.3
2015-Apr-25 15:33N 39°02' W 075°10'10 9.1
2015-Apr-25 14:27N 39°11' W 075°16'1010.9
2015-Apr-25 13:34N 39°19' W 075°24'1111.5
2015-Apr-25 12:34N 39°27' W 075°33'7 6.5
2015-Apr-25 11:34N 39°33' W 075°36'7 6.7
2015-Apr-25 10:33N 39°32' W 075°45'6 5.9
2015-Apr-25 09:34N 39°31' W 075°52'8 7.6
2015-Apr-25 08:33N 39°27' W 075°60'9 8.6
2015-Apr-25 07:33N 39°22' W 076°09'17 0.5
2015-Apr-23 21:09N 39°12' W 076°27'22 8.5
2015-Apr-23 18:34N 39°24' W 076°04'9 8.9
2015-Apr-23 17:33N 39°30' W 075°56'8 7.6
2015-Apr-23 16:34N 39°32' W 075°46'8 8.0
2015-Apr-23 15:34N 39°33' W 075°36'3 2.6
2015-Apr-23 14:32N 39°33' W 075°33'0 0.0
2015-Apr-23 13:32N 39°33' W 075°33'0 0.0
2015-Apr-23 12:33N 39°33' W 075°33'0 0.0
2015-Apr-23 11:33N 39°33' W 075°33'2 1.8
2015-Apr-23 10:33N 39°31' W 075°33'8 8.2
2015-Apr-23 09:33N 39°23' W 075°29'6 6.2
2015-Apr-23 08:33N 39°18' W 075°24'7 7.3
2015-Apr-23 07:33N 39°13' W 075°17'8 8.2
2015-Apr-23 06:33N 39°06' W 075°12'8 6.9
2015-Apr-23 05:19N 38°58' W 075°08'7 8.7
2015-Apr-23 04:33N 38°52' W 075°04'8 8.0
2015-Apr-23 03:33N 38°49' W 074°55'50 9.5
2015-Apr-22 22:20N 39°26' W 074°12'6 7.8
2015-Apr-22 21:33N 39°31' W 074°07'8 7.6
2015-Apr-22 20:33N 39°37' W 074°03'8 8.3
2015-Apr-22 19:33N 39°45' W 073°59'9 8.8
2015-Apr-22 18:33N 39°54' W 073°57'9 9.0
2015-Apr-22 17:33N 40°03' W 073°56'14 9.6
2015-Apr-22 16:07N 40°17' W 073°55'7 9.8
2015-Apr-22 15:24N 40°24' W 073°54'8 7.6
2015-Apr-22 14:24N 40°31' W 073°58'7 8.1
2015-Apr-22 13:33N 40°36' W 074°03'5 4.8
2015-Apr-22 12:33N 40°41' W 074°01'7 7.3
2015-Apr-22 11:33N 40°47' W 073°55'5 5.2
2015-Apr-22 10:31N 40°48' W 073°49'6 5.7
2015-Apr-22 09:24N 40°53' W 073°43'5 6.3
2015-Apr-22 08:33N 40°56' W 073°37'7 6.6
2015-Apr-22 07:33N 40°59' W 073°29'7 7.0
2015-Apr-22 06:33N 41°01' W 073°21'7 7.1
2015-Apr-22 05:32N 41°04' W 073°12'10 7.5
2015-Apr-22 04:16N 41°09' W 073°01'5 7.5
2015-Apr-22 03:33N 41°11' W 072°55'6 6.1
2015-Apr-22 02:32N 41°18' W 072°54'0 0.0
2015-Apr-22 01:32N 41°18' W 072°54'0 0.0
2015-Apr-22 00:26N 41°18' W 072°54'0 0.0
2015-Apr-21 23:32N 41°18' W 072°54'0 0.0
2015-Apr-21 20:29N 41°18' W 072°54'0 0.0
2015-Apr-21 19:26N 41°18' W 072°54'0 0.0
2015-Apr-21 18:26N 41°18' W 072°54'0 0.0
2015-Apr-21 14:29N 41°18' W 072°54'6 6.1
2015-Apr-21 13:32N 41°12' W 072°56'0 0.0
2015-Apr-21 12:29N 41°12' W 072°56'0 0.0
2015-Apr-21 11:32N 41°12' W 072°56'0 0.0
2015-Apr-21 10:14N 41°12' W 072°56'1 2.0
2015-Apr-21 09:33N 41°11' W 072°56'1010.4
2015-Apr-21 08:33N 41°05' W 073°08'1211.7
2015-Apr-21 07:32N 41°01' W 073°22'1111.6
2015-Apr-21 06:34N 40°56' W 073°36'11 8.9
2015-Apr-21 05:22N 40°49' W 073°47'0 0.0
2015-Apr-21 03:30N 40°49' W 073°47'0 0.1
2015-Apr-21 02:06N 40°49' W 073°47'0 0.0
2015-Apr-21 01:18N 40°49' W 073°47'0 0.0
2015-Apr-21 00:21N 40°49' W 073°47'0 0.0
2015-Apr-20 23:33N 40°49' W 073°47'0 0.0
2015-Apr-20 22:33N 40°49' W 073°47'0 0.1
2015-Apr-20 21:33N 40°49' W 073°47'0 0.1
2015-Apr-20 20:31N 40°49' W 073°47'0 0.0
2015-Apr-20 19:12N 40°49' W 073°47'0 0.1
2015-Apr-20 18:14N 40°49' W 073°47'0 0.1
2015-Apr-20 17:33N 40°49' W 073°47'0 0.0
2015-Apr-20 16:33N 40°49' W 073°47'0 0.0
2015-Apr-20 15:19N 40°49' W 073°47'0 0.0
2015-Apr-20 13:17N 40°49' W 073°47'0 0.0
2015-Apr-20 12:33N 40°49' W 073°47'0 0.0
2015-Apr-20 11:32N 40°49' W 073°47'0 0.0
2015-Apr-20 10:33N 40°49' W 073°47'0 0.0
2015-Apr-20 09:33N 40°49' W 073°47'0 0.0
2015-Apr-20 08:33N 40°49' W 073°47'0 0.0
2015-Apr-20 07:33N 40°49' W 073°47'0 0.0
2015-Apr-20 06:33N 40°49' W 073°47'0 0.0
2015-Apr-20 05:33N 40°49' W 073°47'0 0.0
2015-Apr-20 04:33N 40°49' W 073°47'6 6.3
2015-Apr-20 03:33N 40°48' W 073°55'6 6.5
2015-Apr-20 02:33N 40°42' W 073°60'3 3.1
2015-Apr-20 01:33N 40°40' W 074°02'0 0.0
2015-Apr-20 00:33N 40°40' W 074°02'0 0.1
2015-Apr-19 23:33N 40°40' W 074°03'0 0.2
2015-Apr-19 22:33N 40°40' W 074°03'2 2.5
2015-Apr-19 21:33N 40°39' W 074°06'0 0.0
2015-Apr-19 20:33N 40°39' W 074°06'0 0.0
2015-Apr-19 19:33N 40°39' W 074°06'0 0.0
2015-Apr-19 18:33N 40°39' W 074°06'0 0.0
2015-Apr-19 17:33N 40°39' W 074°06'0 0.0
2015-Apr-19 16:33N 40°39' W 074°06'0 0.0
2015-Apr-19 15:33N 40°39' W 074°06'0 0.0
2015-Apr-19 14:33N 40°39' W 074°06'3 3.4
2015-Apr-19 13:33N 40°40' W 074°01'1 1.0
2015-Apr-19 12:33N 40°40' W 074°00'1 1.0
2015-Apr-19 11:33N 40°39' W 074°01'5 5.0
2015-Apr-19 10:33N 40°38' W 074°08'0 0.0
2015-Apr-19 09:33N 40°38' W 074°08'0 0.0
2015-Apr-19 08:33N 40°38' W 074°08'0 0.0
2015-Apr-19 07:33N 40°38' W 074°08'0 0.0
2015-Apr-19 06:33N 40°38' W 074°08'0 0.0
2015-Apr-19 05:33N 40°38' W 074°08'0 0.0
2015-Apr-19 04:34N 40°38' W 074°08'0 0.0
2015-Apr-19 03:32N 40°38' W 074°08'0 0.0
2015-Apr-19 02:33N 40°38' W 074°08'0 0.0
2015-Apr-19 01:33N 40°38' W 074°08'0 0.0
2015-Apr-19 00:33N 40°38' W 074°08'1 1.0
2015-Apr-18 23:32N 40°39' W 074°07'0 0.0
2015-Apr-18 22:17N 40°39' W 074°07'1 1.4
2015-Apr-18 21:33N 40°38' W 074°08'0 0.0
2015-Apr-18 20:33N 40°38' W 074°08'0 0.0
2015-Apr-18 19:33N 40°38' W 074°08'2 1.7
2015-Apr-18 18:33N 40°39' W 074°10'0 0.0
2015-Apr-18 17:33N 40°39' W 074°10'0 0.0
2015-Apr-18 16:33N 40°39' W 074°10'0 0.0
2015-Apr-18 15:33N 40°39' W 074°10'2 1.7
2015-Apr-18 14:33N 40°38' W 074°08'0 0.0
2015-Apr-18 13:33N 40°38' W 074°08'0 0.0
2015-Apr-18 12:33N 40°38' W 074°08'0 0.0
2015-Apr-18 11:33N 40°38' W 074°08'0 0.0
2015-Apr-18 10:33N 40°38' W 074°08'1 0.9
2015-Apr-18 09:34N 40°39' W 074°09'1 1.4
2015-Apr-18 08:33N 40°40' W 074°09'1 1.3
2015-Apr-18 07:33N 40°39' W 074°08'6 6.1
2015-Apr-18 06:33N 40°40' W 074°00'0 0.0
2015-Apr-18 05:33N 40°40' W 074°00'0 0.0
2015-Apr-18 04:33N 40°40' W 074°00'0 0.0
2015-Apr-18 03:33N 40°40' W 074°00'0 0.0
2015-Apr-18 02:33N 40°40' W 074°00'0 0.0
2015-Apr-18 01:33N 40°40' W 074°00'0 0.0
2015-Apr-18 00:33N 40°40' W 074°00'0 0.0
2015-Apr-17 23:33N 40°40' W 074°00'0 0.0
2015-Apr-17 22:33N 40°40' W 074°00'0 0.0
2015-Apr-17 21:33N 40°40' W 074°00'0 0.0
2015-Apr-17 20:33N 40°40' W 074°00'0 0.0
2015-Apr-17 19:33N 40°40' W 074°00'0 0.0
2015-Apr-17 18:33N 40°40' W 074°00'0 0.0
2015-Apr-17 17:33N 40°40' W 074°00'0 0.0
2015-Apr-17 16:33N 40°40' W 074°00'0 0.0
2015-Apr-17 15:33N 40°40' W 074°00'0 0.0
2015-Apr-17 14:33N 40°40' W 074°00'0 0.0
2015-Apr-17 13:33N 40°40' W 074°00'0 0.0
2015-Apr-17 12:33N 40°40' W 074°00'0 0.0
2015-Apr-17 11:33N 40°40' W 074°00'0 0.0
2015-Apr-17 10:33N 40°40' W 074°00'0 0.0
2015-Apr-17 09:33N 40°40' W 074°00'0 0.0
2015-Apr-17 08:33N 40°40' W 074°00'0 0.0
2015-Apr-17 07:33N 40°40' W 074°00'0 0.0
2015-Apr-17 06:34N 40°40' W 074°00'3 2.9
2015-Apr-17 05:33N 40°39' W 074°04'3 3.1
2015-Apr-17 04:33N 40°38' W 074°08'0 0.0
2015-Apr-17 03:33N 40°38' W 074°08'0 0.0
2015-Apr-17 02:33N 40°38' W 074°08'0 0.0
2015-Apr-17 01:31N 40°38' W 074°08'0 0.0
2015-Apr-17 00:33N 40°38' W 074°08'0 0.0
2015-Apr-16 23:33N 40°38' W 074°08'0 0.0
2015-Apr-16 22:33N 40°38' W 074°08'0 0.0
2015-Apr-16 21:33N 40°38' W 074°08'0 0.0
2015-Apr-16 20:33N 40°38' W 074°08'0 0.0
2015-Apr-16 19:33N 40°38' W 074°08'0 0.0
2015-Apr-16 18:33N 40°38' W 074°08'0 0.0
2015-Apr-16 17:33N 40°38' W 074°08'0 0.0
2015-Apr-16 16:33N 40°38' W 074°08'0 0.0
2015-Apr-16 15:33N 40°38' W 074°08'0 0.0
2015-Apr-16 14:33N 40°38' W 074°08'0 0.0
2015-Apr-16 13:33N 40°38' W 074°08'0 0.0
2015-Apr-16 12:33N 40°38' W 074°08'2 0.7
2015-Apr-16 10:19N 40°39' W 074°10'4 5.8
2015-Apr-16 09:33N 40°39' W 074°04'3 1.3
2015-Apr-16 07:23N 40°38' W 074°08'0 0.0
2015-Apr-16 06:33N 40°38' W 074°08'0 0.0
2015-Apr-16 03:33N 40°38' W 074°08'0 0.0
2015-Apr-16 02:33N 40°38' W 074°08'3 3.5
2015-Apr-16 01:33N 40°42' W 074°09'4 4.0
2015-Apr-16 00:34N 40°39' W 074°05'1 1.2
2015-Apr-15 23:33N 40°39' W 074°04'6 3.1
2015-Apr-15 21:33N 40°38' W 074°12'5 2.2
2015-Apr-15 19:07N 40°33' W 074°14'  
Track history (hours):
 
Tides and Currents Weather Stations Pressure Air Temp Water Temp Dewpoint Dewpoint Depression Visibility Wind Speed Wind Dir Waves Ship Positions

Doris Moran

Owner: MORAN TOWING CORPORATION, New Canaan, CT. More information available from US FCC via Universal Licensing System and Coast Guard Vessel Documentation Center.

Last reported at 2015-Apr-25 18:33 UTC. Time now 2015-Apr-25 21:45 UTC.
Position N 38°48' W 074°57'.

Length 36 m; draft 5.3 m.

Type: Ship. MMSI: 366939790.

Date/timePositionNaut miles runAvg speedWind from/ knotsBaromVisibWave heightAir tempDewpointWater temp
2015-Apr-25 18:33N 38°48' W 074°57'7 7.0
2015-Apr-25 17:34N 38°52' W 075°04'7 7.4
2015-Apr-25 16:34N 38°59' W 075°08'3 3.3
2015-Apr-25 15:33N 39°02' W 075°10'10 9.1
2015-Apr-25 14:27N 39°11' W 075°16'1010.9
2015-Apr-25 13:34N 39°19' W 075°24'1111.5
2015-Apr-25 12:34N 39°27' W 075°33'7 6.5
2015-Apr-25 11:34N 39°33' W 075°36'7 6.7
2015-Apr-25 10:33N 39°32' W 075°45'6 5.9
2015-Apr-25 09:34N 39°31' W 075°52'8 7.6
2015-Apr-25 08:33N 39°27' W 075°60'9 8.6
2015-Apr-25 07:33N 39°22' W 076°09'17 0.5
2015-Apr-23 21:09N 39°12' W 076°27'22 8.5
2015-Apr-23 18:34N 39°24' W 076°04'9 8.9
2015-Apr-23 17:33N 39°30' W 075°56'8 7.6
2015-Apr-23 16:34N 39°32' W 075°46'8 8.0
2015-Apr-23 15:34N 39°33' W 075°36'3 2.6
2015-Apr-23 14:32N 39°33' W 075°33'0 0.0
2015-Apr-23 13:32N 39°33' W 075°33'0 0.0
2015-Apr-23 12:33N 39°33' W 075°33'0 0.0
2015-Apr-23 11:33N 39°33' W 075°33'2 1.8
2015-Apr-23 10:33N 39°31' W 075°33'8 8.2
2015-Apr-23 09:33N 39°23' W 075°29'6 6.2
2015-Apr-23 08:33N 39°18' W 075°24'7 7.3
2015-Apr-23 07:33N 39°13' W 075°17'8 8.2
2015-Apr-23 06:33N 39°06' W 075°12'8 6.9
2015-Apr-23 05:19N 38°58' W 075°08'7 8.7
2015-Apr-23 04:33N 38°52' W 075°04'8 8.0
2015-Apr-23 03:33N 38°49' W 074°55'50 9.5
2015-Apr-22 22:20N 39°26' W 074°12'6 7.8
2015-Apr-22 21:33N 39°31' W 074°07'8 7.6
2015-Apr-22 20:33N 39°37' W 074°03'8 8.3
2015-Apr-22 19:33N 39°45' W 073°59'9 8.8
2015-Apr-22 18:33N 39°54' W 073°57'9 9.0
2015-Apr-22 17:33N 40°03' W 073°56'14 9.6
2015-Apr-22 16:07N 40°17' W 073°55'7 9.8
2015-Apr-22 15:24N 40°24' W 073°54'8 7.6
2015-Apr-22 14:24N 40°31' W 073°58'7 8.1
2015-Apr-22 13:33N 40°36' W 074°03'5 4.8
2015-Apr-22 12:33N 40°41' W 074°01'7 7.3
2015-Apr-22 11:33N 40°47' W 073°55'5 5.2
2015-Apr-22 10:31N 40°48' W 073°49'6 5.7
2015-Apr-22 09:24N 40°53' W 073°43'5 6.3
2015-Apr-22 08:33N 40°56' W 073°37'7 6.6
2015-Apr-22 07:33N 40°59' W 073°29'7 7.0
2015-Apr-22 06:33N 41°01' W 073°21'7 7.1
2015-Apr-22 05:32N 41°04' W 073°12'10 7.5
2015-Apr-22 04:16N 41°09' W 073°01'5 7.5
2015-Apr-22 03:33N 41°11' W 072°55'6 6.1
2015-Apr-22 02:32N 41°18' W 072°54'0 0.0
2015-Apr-22 01:32N 41°18' W 072°54'0 0.0
2015-Apr-22 00:26N 41°18' W 072°54'0 0.0
2015-Apr-21 23:32N 41°18' W 072°54'0 0.0
2015-Apr-21 20:29N 41°18' W 072°54'0 0.0
2015-Apr-21 19:26N 41°18' W 072°54'0 0.0
2015-Apr-21 18:26N 41°18' W 072°54'0 0.0
2015-Apr-21 14:29N 41°18' W 072°54'6 6.1
2015-Apr-21 13:32N 41°12' W 072°56'0 0.0
2015-Apr-21 12:29N 41°12' W 072°56'0 0.0
2015-Apr-21 11:32N 41°12' W 072°56'0 0.0
2015-Apr-21 10:14N 41°12' W 072°56'1 2.0
2015-Apr-21 09:33N 41°11' W 072°56'1010.4
2015-Apr-21 08:33N 41°05' W 073°08'1211.7
2015-Apr-21 07:32N 41°01' W 073°22'1111.6
2015-Apr-21 06:34N 40°56' W 073°36'11 8.9
2015-Apr-21 05:22N 40°49' W 073°47'0 0.0
2015-Apr-21 03:30N 40°49' W 073°47'0 0.1
2015-Apr-21 02:06N 40°49' W 073°47'0 0.0
2015-Apr-21 01:18N 40°49' W 073°47'0 0.0
2015-Apr-21 00:21N 40°49' W 073°47'0 0.0
2015-Apr-20 23:33N 40°49' W 073°47'0 0.0
2015-Apr-20 22:33N 40°49' W 073°47'0 0.1
2015-Apr-20 21:33N 40°49' W 073°47'0 0.1
2015-Apr-20 20:31N 40°49' W 073°47'0 0.0
2015-Apr-20 19:12N 40°49' W 073°47'0 0.1
2015-Apr-20 18:14N 40°49' W 073°47'0 0.1
2015-Apr-20 17:33N 40°49' W 073°47'0 0.0
2015-Apr-20 16:33N 40°49' W 073°47'0 0.0
2015-Apr-20 15:19N 40°49' W 073°47'0 0.0
2015-Apr-20 13:17N 40°49' W 073°47'0 0.0
2015-Apr-20 12:33N 40°49' W 073°47'0 0.0
2015-Apr-20 11:32N 40°49' W 073°47'0 0.0
2015-Apr-20 10:33N 40°49' W 073°47'0 0.0
2015-Apr-20 09:33N 40°49' W 073°47'0 0.0
2015-Apr-20 08:33N 40°49' W 073°47'0 0.0
2015-Apr-20 07:33N 40°49' W 073°47'0 0.0
2015-Apr-20 06:33N 40°49' W 073°47'0 0.0
2015-Apr-20 05:33N 40°49' W 073°47'0 0.0
2015-Apr-20 04:33N 40°49' W 073°47'6 6.3
2015-Apr-20 03:33N 40°48' W 073°55'6 6.5
2015-Apr-20 02:33N 40°42' W 073°60'3 3.1
2015-Apr-20 01:33N 40°40' W 074°02'0 0.0
2015-Apr-20 00:33N 40°40' W 074°02'0 0.1
2015-Apr-19 23:33N 40°40' W 074°03'0 0.2
2015-Apr-19 22:33N 40°40' W 074°03'2 2.5
2015-Apr-19 21:33N 40°39' W 074°06'0 0.0
2015-Apr-19 20:33N 40°39' W 074°06'0 0.0
2015-Apr-19 19:33N 40°39' W 074°06'0 0.0
2015-Apr-19 18:33N 40°39' W 074°06'0 0.0
2015-Apr-19 17:33N 40°39' W 074°06'0 0.0
2015-Apr-19 16:33N 40°39' W 074°06'0 0.0
2015-Apr-19 15:33N 40°39' W 074°06'0 0.0
2015-Apr-19 14:33N 40°39' W 074°06'3 3.4
2015-Apr-19 13:33N 40°40' W 074°01'1 1.0
2015-Apr-19 12:33N 40°40' W 074°00'1 1.0
2015-Apr-19 11:33N 40°39' W 074°01'5 5.0
2015-Apr-19 10:33N 40°38' W 074°08'0 0.0
2015-Apr-19 09:33N 40°38' W 074°08'0 0.0
2015-Apr-19 08:33N 40°38' W 074°08'0 0.0
2015-Apr-19 07:33N 40°38' W 074°08'0 0.0
2015-Apr-19 06:33N 40°38' W 074°08'0 0.0
2015-Apr-19 05:33N 40°38' W 074°08'0 0.0
2015-Apr-19 04:34N 40°38' W 074°08'0 0.0
2015-Apr-19 03:32N 40°38' W 074°08'0 0.0
2015-Apr-19 02:33N 40°38' W 074°08'0 0.0
2015-Apr-19 01:33N 40°38' W 074°08'0 0.0
2015-Apr-19 00:33N 40°38' W 074°08'1 1.0
2015-Apr-18 23:32N 40°39' W 074°07'0 0.0
2015-Apr-18 22:17N 40°39' W 074°07'1 1.4
2015-Apr-18 21:33N 40°38' W 074°08'0 0.0
2015-Apr-18 20:33N 40°38' W 074°08'0 0.0
2015-Apr-18 19:33N 40°38' W 074°08'2 1.7
2015-Apr-18 18:33N 40°39' W 074°10'0 0.0
2015-Apr-18 17:33N 40°39' W 074°10'0 0.0
2015-Apr-18 16:33N 40°39' W 074°10'0 0.0
2015-Apr-18 15:33N 40°39' W 074°10'2 1.7
2015-Apr-18 14:33N 40°38' W 074°08'0 0.0
2015-Apr-18 13:33N 40°38' W 074°08'0 0.0
2015-Apr-18 12:33N 40°38' W 074°08'0 0.0
2015-Apr-18 11:33N 40°38' W 074°08'0 0.0
2015-Apr-18 10:33N 40°38' W 074°08'1 0.9
2015-Apr-18 09:34N 40°39' W 074°09'1 1.4
2015-Apr-18 08:33N 40°40' W 074°09'1 1.3
2015-Apr-18 07:33N 40°39' W 074°08'6 6.1
2015-Apr-18 06:33N 40°40' W 074°00'0 0.0
2015-Apr-18 05:33N 40°40' W 074°00'0 0.0
2015-Apr-18 04:33N 40°40' W 074°00'0 0.0
2015-Apr-18 03:33N 40°40' W 074°00'0 0.0
2015-Apr-18 02:33N 40°40' W 074°00'0 0.0
2015-Apr-18 01:33N 40°40' W 074°00'0 0.0
2015-Apr-18 00:33N 40°40' W 074°00'0 0.0
2015-Apr-17 23:33N 40°40' W 074°00'0 0.0
2015-Apr-17 22:33N 40°40' W 074°00'0 0.0
2015-Apr-17 21:33N 40°40' W 074°00'0 0.0
2015-Apr-17 20:33N 40°40' W 074°00'0 0.0
2015-Apr-17 19:33N 40°40' W 074°00'0 0.0
2015-Apr-17 18:33N 40°40' W 074°00'0 0.0
2015-Apr-17 17:33N 40°40' W 074°00'0 0.0
2015-Apr-17 16:33N 40°40' W 074°00'0 0.0
2015-Apr-17 15:33N 40°40' W 074°00'0 0.0
2015-Apr-17 14:33N 40°40' W 074°00'0 0.0
2015-Apr-17 13:33N 40°40' W 074°00'0 0.0
2015-Apr-17 12:33N 40°40' W 074°00'0 0.0
2015-Apr-17 11:33N 40°40' W 074°00'0 0.0
2015-Apr-17 10:33N 40°40' W 074°00'0 0.0
2015-Apr-17 09:33N 40°40' W 074°00'0 0.0
2015-Apr-17 08:33N 40°40' W 074°00'0 0.0
2015-Apr-17 07:33N 40°40' W 074°00'0 0.0
2015-Apr-17 06:34N 40°40' W 074°00'3 2.9
2015-Apr-17 05:33N 40°39' W 074°04'3 3.1
2015-Apr-17 04:33N 40°38' W 074°08'0 0.0
2015-Apr-17 03:33N 40°38' W 074°08'0 0.0
2015-Apr-17 02:33N 40°38' W 074°08'0 0.0
2015-Apr-17 01:31N 40°38' W 074°08'0 0.0
2015-Apr-17 00:33N 40°38' W 074°08'0 0.0
2015-Apr-16 23:33N 40°38' W 074°08'0 0.0
2015-Apr-16 22:33N 40°38' W 074°08'0 0.0
2015-Apr-16 21:33N 40°38' W 074°08'0 0.0
2015-Apr-16 20:33N 40°38' W 074°08'0 0.0
2015-Apr-16 19:33N 40°38' W 074°08'0 0.0
2015-Apr-16 18:33N 40°38' W 074°08'0 0.0
2015-Apr-16 17:33N 40°38' W 074°08'0 0.0
2015-Apr-16 16:33N 40°38' W 074°08'0 0.0
2015-Apr-16 15:33N 40°38' W 074°08'0 0.0
2015-Apr-16 14:33N 40°38' W 074°08'0 0.0
2015-Apr-16 13:33N 40°38' W 074°08'0 0.0
2015-Apr-16 12:33N 40°38' W 074°08'2 0.7
2015-Apr-16 10:19N 40°39' W 074°10'4 5.8
2015-Apr-16 09:33N 40°39' W 074°04'3 1.3
2015-Apr-16 07:23N 40°38' W 074°08'0 0.0
2015-Apr-16 06:33N 40°38' W 074°08'0 0.0
2015-Apr-16 03:33N 40°38' W 074°08'0 0.0
2015-Apr-16 02:33N 40°38' W 074°08'3 3.5
2015-Apr-16 01:33N 40°42' W 074°09'4 4.0
2015-Apr-16 00:34N 40°39' W 074°05'1 1.2
2015-Apr-15 23:33N 40°39' W 074°04'6 3.1
2015-Apr-15 21:33N 40°38' W 074°12'5 2.2
2015-Apr-15 19:07N 40°33' W 074°14'  

Dump ship's entire track history